Time;durP1;ratioP1;P1;durP2;ratioP2;P2;SDS_P1;SDS_P2;PMS_P1;PMS_P2;Temp;Humidity;BMP_temperature;BMP_pressure;BME280_temperature;BME280_humidity;BME280_pressure;Samples;Min_cycle;Max_cycle;Signal;HPM_P1;HPM_P2
2023/07/15 00:00:26;;;;;;;8.80;1.52;;;15.80;99.90;;;;;;5095805;28;20040;-81
2023/07/15 00:02:53;;;;;;;9.45;1.90;;;15.80;99.90;;;;;;5078143;28;20052;-82
2023/07/15 00:05:20;;;;;;;6.30;1.83;;;15.70;99.90;;;;;;5065539;28;20652;-83
2023/07/15 00:07:48;;;;;;;7.85;1.83;;;15.70;99.90;;;;;;5055605;28;20769;-80
2023/07/15 00:10:15;;;;;;;7.57;1.63;;;15.70;99.90;;;;;;5075214;28;20110;-81
2023/07/15 00:12:41;;;;;;;11.02;1.80;;;15.70;99.90;;;;;;5056849;28;20441;-83
2023/07/15 00:15:09;;;;;;;12.90;1.80;;;15.70;99.90;;;;;;5057955;28;20063;-83
2023/07/15 00:17:38;;;;;;;10.95;1.83;;;15.70;99.90;;;;;;5057904;28;20044;-82
2023/07/15 00:20:07;;;;;;;6.75;1.60;;;15.60;99.90;;;;;;5074063;28;20037;-81
2023/07/15 00:22:35;;;;;;;9.10;1.65;;;15.60;99.90;;;;;;5058120;28;20033;-80
2023/07/15 00:25:02;;;;;;;10.80;1.90;;;15.60;99.90;;;;;;5056652;28;20542;-84
2023/07/15 00:27:28;;;;;;;10.18;1.83;;;15.60;99.90;;;;;;5075204;28;20102;-81
2023/07/15 00:29:55;;;;;;;13.45;1.95;;;15.60;99.90;;;;;;5057882;28;20378;-84
2023/07/15 00:32:22;;;;;;;9.05;1.80;;;15.60;99.90;;;;;;5055957;28;20048;-82
2023/07/15 00:34:48;;;;;;;7.00;1.88;;;15.60;99.90;;;;;;5057241;28;20048;-83
2023/07/15 00:37:16;;;;;;;11.32;1.60;;;15.60;99.90;;;;;;5033358;28;20069;-82
2023/07/15 00:39:44;;;;;;;7.85;1.73;;;15.60;99.90;;;;;;5033253;28;20526;-81
2023/07/15 00:42:11;;;;;;;8.27;2.05;;;15.50;99.90;;;;;;5035519;28;20041;-83
2023/07/15 00:44:38;;;;;;;7.70;2.10;;;15.50;99.90;;;;;;5034559;28;20041;-84
2023/07/15 00:47:08;;;;;;;6.55;1.92;;;15.50;99.90;;;;;;5018090;28;20037;-80
2023/07/15 00:49:35;;;;;;;7.95;1.75;;;15.50;99.90;;;;;;5034499;28;20045;-82
2023/07/15 00:52:02;;;;;;;7.45;2.00;;;15.40;99.90;;;;;;5050327;28;20387;-83
2023/07/15 00:54:28;;;;;;;8.27;2.15;;;15.40;99.90;;;;;;5054871;28;20037;-83
2023/07/15 00:56:59;;;;;;;15.20;2.40;;;15.50;99.90;;;;;;5054239;28;20041;-81
2023/07/15 00:59:25;;;;;;;11.82;2.10;;;15.40;99.90;;;;;;5052741;28;20049;-83
2023/07/15 01:01:53;;;;;;;11.77;2.25;;;15.50;99.90;;;;;;5054747;28;20381;-80
2023/07/15 01:04:20;;;;;;;12.18;2.30;;;15.60;99.90;;;;;;5054700;28;20037;-83
2023/07/15 01:06:49;;;;;;;9.85;2.10;;;15.60;99.90;;;;;;5036369;28;20103;-79
2023/07/15 01:09:15;;;;;;;8.93;1.98;;;15.60;99.90;;;;;;5053798;28;20049;-82
2023/07/15 01:11:42;;;;;;;10.90;1.85;;;15.70;99.90;;;;;;5053606;28;20503;-80
2023/07/15 01:14:15;;;;;;;10.43;2.22;;;15.70;99.90;;;;;;5054161;28;20037;-81
2023/07/15 01:16:47;;;;;;;13.75;2.38;;;15.80;99.90;;;;;;5070099;28;20136;-83
2023/07/15 01:19:18;;;;;;;25.35;3.00;;;15.80;99.90;;;;;;5053662;28;20041;-81
2023/07/15 01:21:45;;;;;;;9.25;2.05;;;15.90;99.90;;;;;;5054851;28;20102;-83
2023/07/15 01:24:12;;;;;;;9.63;1.83;;;15.90;99.90;;;;;;5054046;28;20136;-81
2023/07/15 01:26:40;;;;;;;15.70;2.42;;;15.90;99.90;;;;;;5053729;28;20363;-81
2023/07/15 01:29:07;;;;;;;11.60;2.03;;;15.90;99.90;;;;;;5036772;28;20041;-82
2023/07/15 01:31:34;;;;;;;14.60;2.40;;;15.90;99.90;;;;;;5053495;28;20083;-81
2023/07/15 01:34:01;;;;;;;10.85;2.20;;;15.90;99.90;;;;;;5053710;28;20051;-81
2023/07/15 01:39:14;;;;;;;12.13;1.90;;;15.90;99.90;;;;;;5036878;28;20149;-81
2023/07/15 01:41:42;;;;;;;13.88;2.17;;;16.00;99.90;;;;;;5033552;28;20069;-82
2023/07/15 01:44:09;;;;;;;8.52;2.15;;;16.00;99.90;;;;;;5020464;28;20511;-82
2023/07/15 01:46:39;;;;;;;14.70;2.38;;;16.00;99.90;;;;;;5037679;28;20375;-82
2023/07/15 01:49:07;;;;;;;;;;;16.00;99.90;;;;;;5037866;28;20116;-82
2023/07/15 01:51:37;;;;;;;8.25;1.83;;;16.00;99.90;;;;;;5036249;28;20512;-82
2023/07/15 01:54:04;;;;;;;9.60;2.28;;;16.00;99.90;;;;;;5037952;28;20095;-82
2023/07/15 01:56:31;;;;;;;13.68;2.13;;;16.00;99.90;;;;;;5037459;28;20033;-81
2023/07/15 01:58:58;;;;;;;15.82;2.28;;;16.00;99.90;;;;;;5036342;28;20049;-82
2023/07/15 02:01:25;;;;;;;11.57;2.20;;;16.00;99.90;;;;;;5037466;28;20041;-83
2023/07/15 02:03:52;;;;;;;15.43;2.95;;;16.00;99.90;;;;;;5037450;28;20128;-81
2023/07/15 02:09:07;;;;;;;8.25;2.25;;;16.00;99.90;;;;;;5038024;28;20065;-82
2023/07/15 02:11:35;;;;;;;14.00;2.47;;;16.00;99.90;;;;;;5036947;28;20045;-81
2023/07/15 02:14:02;;;;;;;13.40;2.58;;;15.90;99.90;;;;;;5020594;28;20461;-81
2023/07/15 02:16:30;;;;;;;11.73;2.97;;;15.90;99.90;;;;;;5036657;28;20099;-81
2023/07/15 02:18:58;;;;;;;8.10;1.95;;;16.00;99.90;;;;;;5035901;28;20041;-81
2023/07/15 02:21:25;;;;;;;15.82;4.07;;;16.00;99.90;;;;;;5037928;28;20356;-79
2023/07/15 02:23:54;;;;;;;12.00;2.75;;;16.00;99.90;;;;;;5038132;28;20045;-79
2023/07/15 02:26:21;;;;;;;8.60;2.10;;;16.00;99.90;;;;;;5035980;28;20049;-82
2023/07/15 02:28:48;;;;;;;16.52;2.35;;;16.00;99.90;;;;;;5036819;28;20041;-81
2023/07/15 02:31:15;;;;;;;16.17;2.55;;;16.00;99.90;;;;;;5036945;28;20065;-81
2023/07/15 02:33:42;;;;;;;9.82;2.38;;;16.00;99.90;;;;;;5036412;28;20060;-80
2023/07/15 02:36:10;;;;;;;11.70;2.50;;;16.00;99.90;;;;;;5020117;28;20049;-83
2023/07/15 02:38:37;;;;;;;9.85;2.38;;;16.00;99.90;;;;;;5066199;28;20056;-81
2023/07/15 02:41:04;;;;;;;15.10;3.20;;;16.00;99.90;;;;;;5059773;28;20048;-81
2023/07/15 02:43:31;;;;;;;13.32;2.65;;;16.00;99.90;;;;;;5043103;28;20471;-82
2023/07/15 02:46:00;;;;;;;12.48;2.50;;;16.00;99.90;;;;;;5076491;28;20036;-82
2023/07/15 02:48:27;;;;;;;19.60;2.33;;;16.00;99.90;;;;;;5059460;28;20109;-82
2023/07/15 02:50:54;;;;;;;15.40;2.58;;;15.90;99.90;;;;;;5059611;28;20079;-83
2023/07/15 02:53:21;;;;;;;13.18;2.47;;;15.90;99.90;;;;;;5076013;28;20041;-81
2023/07/15 02:55:50;;;;;;;12.45;2.15;;;15.90;99.90;;;;;;5058673;28;20042;-82
2023/07/15 02:58:17;;;;;;;14.10;2.25;;;15.90;99.90;;;;;;5058565;28;20386;-82
2023/07/15 03:00:44;;;;;;;18.05;2.65;;;15.90;99.90;;;;;;5076419;28;20044;-81
2023/07/15 03:03:10;;;;;;;12.25;3.08;;;16.00;99.90;;;;;;5059694;28;20049;-82
2023/07/15 03:05:41;;;;;;;13.02;2.45;;;16.00;99.90;;;;;;5058277;28;20048;-82
2023/07/15 03:08:07;;;;;;;13.35;3.05;;;16.00;99.90;;;;;;5058973;28;20048;-82
2023/07/15 03:10:34;;;;;;;15.20;2.45;;;16.00;99.90;;;;;;5076679;28;20040;-81
2023/07/15 03:13:01;;;;;;;16.98;3.08;;;16.10;99.90;;;;;;5058255;28;20537;-81
2023/07/15 03:15:28;;;;;;;14.75;2.22;;;16.10;99.90;;;;;;5076656;28;20131;-80
2023/07/15 03:17:54;;;;;;;22.60;3.25;;;16.10;99.90;;;;;;5058437;28;20048;-80
2023/07/15 03:20:21;;;;;;;17.92;2.70;;;16.10;99.90;;;;;;5058590;28;20044;-80
2023/07/15 03:22:48;;;;;;;16.65;3.13;;;16.10;99.90;;;;;;5076337;28;20046;-83
2023/07/15 03:25:16;;;;;;;15.90;2.40;;;16.10;99.90;;;;;;5075828;28;20040;-82
2023/07/15 03:27:44;;;;;;;15.40;2.40;;;16.10;99.90;;;;;;5076320;28;20379;-82
2023/07/15 03:30:12;;;;;;;14.18;2.53;;;16.10;99.90;;;;;;5076119;28;20049;-81
2023/07/15 03:32:38;;;;;;;11.30;2.08;;;16.10;99.90;;;;;;5057837;28;20068;-81
2023/07/15 03:35:05;;;;;;;19.17;2.63;;;16.10;99.90;;;;;;5058494;28;20147;-83
2023/07/15 03:37:32;;;;;;;19.65;2.75;;;16.10;99.90;;;;;;5058501;28;20057;-81
2023/07/15 03:39:59;;;;;;;20.83;2.40;;;16.20;99.90;;;;;;5057796;28;20463;-81
2023/07/15 03:42:26;;;;;;;11.90;2.25;;;16.20;99.90;;;;;;5076282;28;20048;-83
2023/07/15 03:44:52;;;;;;;14.40;2.88;;;16.20;99.90;;;;;;5075462;28;20075;-83
2023/07/15 03:47:19;;;;;;;13.23;2.53;;;16.20;99.90;;;;;;5058635;28;20045;-81
2023/07/15 03:49:46;;;;;;;13.18;2.47;;;16.20;99.90;;;;;;5075924;28;20135;-83
2023/07/15 03:52:13;;;;;;;15.95;2.55;;;16.20;99.90;;;;;;5074774;28;20040;-82
2023/07/15 03:54:40;;;;;;;13.60;2.03;;;16.20;99.90;;;;;;5058347;28;20101;-81
2023/07/15 03:59:52;;;;;;;11.10;2.33;;;16.20;99.90;;;;;;5057207;28;20372;-82
2023/07/15 04:02:19;;;;;;;10.82;2.20;;;16.20;99.90;;;;;;5075825;28;20037;-81
2023/07/15 04:04:46;;;;;;;13.00;2.55;;;16.20;99.90;;;;;;5057314;28;20118;-81
2023/07/15 04:07:15;;;;;;;13.35;2.03;;;16.10;99.90;;;;;;5075510;28;20116;-81
2023/07/15 04:09:42;;;;;;;12.60;2.67;;;16.00;99.90;;;;;;5058015;28;20036;-82
2023/07/15 04:12:09;;;;;;;16.63;2.70;;;16.00;99.90;;;;;;5075027;28;20064;-82
2023/07/15 04:14:36;;;;;;;13.43;2.65;;;16.00;99.90;;;;;;5075458;28;20452;-82
2023/07/15 04:19:48;;;;;;;11.43;3.00;;;15.90;99.90;;;;;;5056584;28;20048;-82
2023/07/15 04:22:15;;;;;;;9.15;2.00;;;16.00;99.90;;;;;;5057577;28;20102;-81
2023/07/15 04:24:42;;;;;;;11.57;2.30;;;16.00;99.90;;;;;;5074569;28;20448;-83
2023/07/15 04:27:09;;;;;;;16.23;2.15;;;16.10;99.90;;;;;;5058082;28;20093;-82
2023/07/15 04:29:36;;;;;;;12.82;2.28;;;16.10;99.90;;;;;;5075384;28;20409;-81
2023/07/15 04:32:03;;;;;;;11.68;2.28;;;16.10;99.90;;;;;;5056573;28;20419;-82
2023/07/15 04:34:30;;;;;;;10.25;2.22;;;16.20;99.90;;;;;;5057399;28;20417;-82
2023/07/15 04:36:57;;;;;;;16.02;2.40;;;16.20;99.90;;;;;;5073722;28;20115;-82
2023/07/15 04:39:24;;;;;;;16.02;2.28;;;16.20;99.90;;;;;;5056385;28;20464;-80
2023/07/15 04:41:50;;;;;;;10.75;2.17;;;16.20;99.90;;;;;;5057642;28;20064;-82
2023/07/15 04:44:17;;;;;;;15.98;2.28;;;16.20;99.90;;;;;;5074844;28;20036;-81
2023/07/15 04:46:45;;;;;;;8.80;1.92;;;16.20;99.90;;;;;;5087303;28;20101;-83
2023/07/15 04:49:12;;;;;;;15.57;2.72;;;16.20;99.90;;;;;;5077154;28;20043;-81
2023/07/15 04:51:39;;;;;;;10.73;2.35;;;16.20;99.90;;;;;;5059706;28;20044;-80
2023/07/15 04:54:06;;;;;;;16.20;2.42;;;16.20;99.90;;;;;;5095517;28;20039;-81
2023/07/15 04:59:20;;;;;;;11.73;2.00;;;16.20;99.90;;;;;;5093869;28;20044;-81
2023/07/15 05:01:47;;;;;;;8.15;2.22;;;16.20;99.90;;;;;;5095087;28;20075;-81
2023/07/15 05:04:14;;;;;;;9.55;1.85;;;16.20;99.90;;;;;;5095626;28;20043;-80
2023/07/15 05:06:41;;;;;;;10.82;2.08;;;16.20;99.90;;;;;;5094024;28;20078;-83
2023/07/15 05:09:09;;;;;;;16.20;2.20;;;16.30;99.90;;;;;;5077196;28;20448;-82
2023/07/15 05:11:36;;;;;;;7.88;2.20;;;16.40;99.90;;;;;;5094325;28;20493;-81
2023/07/15 05:14:04;;;;;;;8.88;2.05;;;16.50;99.90;;;;;;5060993;28;20051;-81
2023/07/15 05:16:32;;;;;;;12.10;2.00;;;16.60;99.90;;;;;;5077184;28;20044;-82
2023/07/15 05:18:59;;;;;;;11.85;2.25;;;16.70;99.90;;;;;;5097141;28;20036;-82
2023/07/15 05:21:26;;;;;;;12.32;2.03;;;16.70;99.90;;;;;;5081814;28;20097;-82
2023/07/15 05:23:53;;;;;;;10.40;2.05;;;16.80;99.90;;;;;;5099272;28;20040;-81
2023/07/15 05:26:20;;;;;;;8.77;2.03;;;16.80;99.90;;;;;;5098375;28;20067;-82
2023/07/15 05:28:48;;;;;;;6.80;1.83;;;16.80;99.90;;;;;;5081371;28;20443;-81
2023/07/15 05:31:15;;;;;;;5.72;1.77;;;16.80;99.90;;;;;;5098599;28;20047;-82
2023/07/15 05:33:44;;;;;;;8.38;2.13;;;16.80;99.90;;;;;;5081498;28;20462;-80
2023/07/15 05:36:12;;;;;;;8.13;1.75;;;16.80;99.90;;;;;;5098898;28;20040;-82
2023/07/15 05:38:39;;;;;;;9.95;1.90;;;16.80;99.90;;;;;;5079809;28;20117;-80
2023/07/15 05:41:05;;;;;;;11.73;2.00;;;16.80;99.90;;;;;;5080844;28;20108;-80
2023/07/15 05:43:32;;;;;;;10.10;1.88;;;16.80;99.90;;;;;;5098552;28;20064;-81
2023/07/15 05:46:01;;;;;;;12.93;2.00;;;16.90;99.90;;;;;;5097648;28;20051;-82
2023/07/15 05:48:27;;;;;;;9.10;1.73;;;17.00;99.90;;;;;;5080575;28;20040;-83
2023/07/15 05:50:54;;;;;;;12.70;2.10;;;17.00;99.90;;;;;;5081013;28;20044;-83
2023/07/15 05:53:21;;;;;;;8.95;2.13;;;17.10;99.90;;;;;;5079826;28;20105;-82
2023/07/15 05:55:49;;;;;;;17.88;2.58;;;17.10;99.90;;;;;;5085409;28;20041;-81
2023/07/15 05:58:16;;;;;;;7.75;1.90;;;17.10;99.90;;;;;;5057564;28;20044;-82
2023/07/15 06:00:42;;;;;;;12.27;2.05;;;17.10;99.90;;;;;;5078224;28;20118;-80
2023/07/15 06:03:09;;;;;;;7.80;2.28;;;17.10;99.90;;;;;;5059093;28;20067;-82
2023/07/15 06:05:36;;;;;;;11.52;2.10;;;17.10;99.90;;;;;;5057219;28;20040;-83
2023/07/15 06:08:03;;;;;;;10.40;2.20;;;16.90;99.90;;;;;;5074077;28;20109;-82
2023/07/15 06:10:30;;;;;;;7.60;1.85;;;16.80;99.90;;;;;;5077850;28;20475;-83
2023/07/15 06:12:57;;;;;;;14.32;3.35;;;16.70;99.90;;;;;;5059430;28;20109;-83
2023/07/15 06:15:26;;;;;;;10.63;2.35;;;16.60;99.90;;;;;;5060381;28;20063;-80
2023/07/15 06:17:54;;;;;;;9.95;2.08;;;16.60;99.90;;;;;;5059790;28;20045;-81
2023/07/15 06:20:21;;;;;;;11.02;2.08;;;16.60;99.90;;;;;;5077993;28;20071;-82
2023/07/15 06:22:47;;;;;;;9.35;2.22;;;16.60;99.90;;;;;;5077616;28;20087;-83
2023/07/15 06:25:16;;;;;;;13.88;2.28;;;16.60;99.90;;;;;;5076578;28;20404;-82
2023/07/15 06:27:43;;;;;;;10.98;2.38;;;16.70;99.90;;;;;;5077797;28;20045;-83
2023/07/15 06:30:10;;;;;;;13.93;2.33;;;16.70;99.90;;;;;;5053868;28;20067;-82
2023/07/15 06:32:36;;;;;;;11.15;1.90;;;16.70;99.90;;;;;;5076418;28;20048;-84
2023/07/15 06:35:03;;;;;;;16.38;2.47;;;16.70;99.90;;;;;;5060370;28;20044;-83
2023/07/15 06:37:30;;;;;;;11.73;1.85;;;16.70;99.90;;;;;;5059580;28;20106;-83
2023/07/15 06:39:57;;;;;;;12.68;2.40;;;16.60;99.90;;;;;;5075937;28;20040;-81
2023/07/15 06:42:23;;;;;;;8.57;2.30;;;16.60;99.90;;;;;;5060178;28;20064;-82
2023/07/15 06:44:50;;;;;;;6.45;2.13;;;16.60;99.90;;;;;;5076536;28;20048;-81
2023/07/15 06:47:18;;;;;;;9.30;2.17;;;16.60;99.90;;;;;;5076876;28;20037;-82
2023/07/15 06:49:45;;;;;;;9.43;2.20;;;16.70;99.90;;;;;;5076620;28;20040;-81
2023/07/15 06:52:11;;;;;;;9.40;1.95;;;16.80;99.90;;;;;;5058163;28;20375;-82
2023/07/15 06:54:38;;;;;;;13.25;2.25;;;16.90;99.90;;;;;;5059328;28;20045;-84
2023/07/15 06:57:06;;;;;;;12.68;2.25;;;17.10;99.90;;;;;;5076832;28;20037;-82
2023/07/15 06:59:33;;;;;;;13.75;2.38;;;17.30;99.90;;;;;;5075862;28;20090;-82
2023/07/15 07:01:59;;;;;;;8.60;2.22;;;17.40;99.90;;;;;;5076942;28;20119;-82
2023/07/15 07:04:26;;;;;;;14.15;2.22;;;17.50;99.90;;;;;;5076987;28;20109;-82
2023/07/15 07:06:54;;;;;;;15.32;2.40;;;17.50;99.90;;;;;;5076050;28;20075;-81
2023/07/15 07:09:21;;;;;;;13.98;2.78;;;17.60;99.90;;;;;;5076705;28;20048;-84
2023/07/15 07:11:47;;;;;;;12.07;2.67;;;17.70;99.90;;;;;;5075990;28;20083;-81
2023/07/15 07:14:14;;;;;;;10.63;2.13;;;17.80;99.90;;;;;;5076687;28;20042;-82
2023/07/15 07:16:41;;;;;;;7.15;1.95;;;17.70;99.90;;;;;;5077083;28;20079;-82
2023/07/15 07:19:07;;;;;;;10.43;2.20;;;17.80;99.90;;;;;;5075335;28;20098;-82
2023/07/15 07:21:34;;;;;;;8.10;2.40;;;17.90;99.90;;;;;;5059557;28;20041;-81
2023/07/15 07:24:01;;;;;;;15.38;2.45;;;18.10;99.90;;;;;;5076609;28;20102;-85
2023/07/15 07:26:28;;;;;;;13.05;2.13;;;18.10;99.90;;;;;;5075354;28;20040;-83
2023/07/15 07:28:54;;;;;;;11.02;2.10;;;18.10;99.90;;;;;;5076286;28;20429;-80
2023/07/15 07:31:21;;;;;;;13.90;2.25;;;18.10;99.90;;;;;;5075565;28;20349;-82
2023/07/15 07:33:48;;;;;;;11.65;2.78;;;18.10;99.90;;;;;;5076648;28;20045;-83
2023/07/15 07:36:16;;;;;;;9.38;2.17;;;18.20;99.90;;;;;;5059363;28;20072;-85
2023/07/15 07:38:44;;;;;;;10.20;2.75;;;18.20;99.90;;;;;;5074812;28;20064;-82
2023/07/15 07:41:10;;;;;;;11.38;2.25;;;18.20;99.90;;;;;;5075978;28;20040;-82
2023/07/15 07:43:38;;;;;;;13.23;2.42;;;18.20;99.90;;;;;;5076203;28;20070;-82
2023/07/15 07:46:05;;;;;;;12.70;2.38;;;18.20;99.90;;;;;;5075186;28;20094;-83
2023/07/15 07:48:32;;;;;;;7.20;2.17;;;18.20;99.90;;;;;;5058164;28;20055;-83
2023/07/15 07:50:59;;;;;;;10.15;2.30;;;18.20;99.90;;;;;;5058817;28;20123;-82
2023/07/15 07:53:26;;;;;;;11.40;2.03;;;18.40;99.90;;;;;;5058069;28;20060;-83
2023/07/15 07:58:38;;;;;;;9.95;2.15;;;18.80;99.90;;;;;;5057121;28;20044;-83
2023/07/15 08:01:05;;;;;;;10.52;2.55;;;19.00;99.90;;;;;;5075876;28;20052;-84
2023/07/15 08:03:31;;;;;;;9.35;2.10;;;19.20;99.90;;;;;;5075895;28;20072;-83
2023/07/15 08:05:59;;;;;;;8.40;2.10;;;19.20;99.90;;;;;;5074849;28;20454;-81
2023/07/15 08:08:26;;;;;;;13.98;2.30;;;19.30;99.90;;;;;;5075485;28;20051;-82
2023/07/15 08:10:53;;;;;;;8.48;2.30;;;19.20;99.90;;;;;;5075413;28;20079;-81
2023/07/15 08:13:20;;;;;;;7.43;2.08;;;19.30;99.90;;;;;;5074711;28;20079;-81
2023/07/15 08:15:47;;;;;;;11.43;2.50;;;19.30;99.90;;;;;;5075445;28;20072;-81
2023/07/15 08:18:14;;;;;;;9.10;2.00;;;19.20;99.90;;;;;;5074572;28;20067;-81
2023/07/15 08:20:41;;;;;;;10.73;2.42;;;19.30;99.90;;;;;;5075278;28;20041;-81
2023/07/15 08:23:08;;;;;;;10.73;2.17;;;19.50;99.90;;;;;;5075268;28;20041;-82
2023/07/15 08:25:35;;;;;;;10.82;2.53;;;19.70;99.90;;;;;;5074521;28;20040;-81
2023/07/15 08:28:02;;;;;;;10.40;2.15;;;20.10;99.90;;;;;;5057348;28;20056;-86
2023/07/15 08:30:29;;;;;;;9.10;2.17;;;20.20;99.90;;;;;;5074975;28;20064;-83
2023/07/15 08:32:55;;;;;;;12.45;2.33;;;20.20;99.90;;;;;;5074478;28;20082;-84
2023/07/15 08:38:07;;;;;;;15.65;2.42;;;20.30;99.90;;;;;;5073019;28;20095;-85
2023/07/15 08:40:35;;;;;;;10.57;2.10;;;20.60;99.90;;;;;;5056467;28;20037;-82
2023/07/15 08:43:01;;;;;;;10.43;2.10;;;20.80;99.90;;;;;;5068684;28;20083;-81
2023/07/15 08:45:28;;;;;;;7.40;2.00;;;20.90;99.90;;;;;;5050376;28;20105;-85
2023/07/15 08:47:55;;;;;;;13.68;2.50;;;20.90;99.90;;;;;;5057358;28;20521;-81
2023/07/15 08:50:22;;;;;;;9.02;2.00;;;20.70;99.90;;;;;;5057246;28;20040;-84
2023/07/15 08:52:48;;;;;;;9.88;2.28;;;20.60;99.90;;;;;;5051867;28;20059;-82
2023/07/15 08:58:06;;;;;;;12.27;2.20;;;20.40;99.90;;;;;;5073809;28;20037;-86
2023/07/15 09:00:32;;;;;;;9.18;2.10;;;20.30;99.90;;;;;;5074993;28;20068;-82
2023/07/15 09:02:59;;;;;;;7.55;2.08;;;20.20;99.90;;;;;;5056902;28;20048;-83
2023/07/15 09:05:26;;;;;;;7.03;1.85;;;20.20;99.90;;;;;;5073590;28;20055;-82
2023/07/15 09:07:53;;;;;;;7.53;1.80;;;20.30;99.90;;;;;;5036753;28;20041;-85
2023/07/15 09:10:20;;;;;;;10.43;1.75;;;20.40;99.90;;;;;;5053097;28;20051;-86
2023/07/15 09:12:46;;;;;;;6.78;1.65;;;20.30;99.90;;;;;;5039627;28;20052;-83
2023/07/15 09:15:16;;;;;;;11.73;2.10;;;20.50;99.90;;;;;;5056946;28;20094;-85
2023/07/15 09:17:43;;;;;;;11.60;1.90;;;20.70;99.90;;;;;;5056990;28;20040;-81
2023/07/15 09:20:10;;;;;;;7.35;1.83;;;20.80;99.90;;;;;;5073605;28;20052;-81
2023/07/15 09:22:36;;;;;;;11.20;1.75;;;21.00;99.90;;;;;;5056681;28;20336;-82
2023/07/15 09:25:03;;;;;;;7.47;1.85;;;21.10;99.90;;;;;;5056172;28;20359;-82
2023/07/15 09:27:30;;;;;;;11.85;2.30;;;21.30;99.90;;;;;;5040111;28;20436;-85
2023/07/15 09:29:57;;;;;;;9.85;2.00;;;21.30;99.90;;;;;;5056552;28;20098;-82
2023/07/15 09:32:24;;;;;;;9.48;2.20;;;21.20;99.90;;;;;;5056060;28;20075;-84
2023/07/15 09:34:52;;;;;;;10.93;1.98;;;21.50;99.90;;;;;;5056909;28;20037;-84
2023/07/15 09:37:18;;;;;;;12.50;2.20;;;21.70;99.90;;;;;;5073780;28;20382;-83
2023/07/15 09:39:45;;;;;;;9.73;2.13;;;21.90;99.90;;;;;;5073651;28;20037;-85
2023/07/15 09:42:12;;;;;;;10.43;2.42;;;21.90;99.90;;;;;;5074242;28;20045;-81
2023/07/15 09:44:39;;;;;;;9.75;1.83;;;21.70;99.90;;;;;;5055581;28;20048;-82
2023/07/15 09:47:07;;;;;;;12.55;2.17;;;21.80;99.90;;;;;;5056466;28;20371;-84
2023/07/15 09:49:34;;;;;;;11.45;2.38;;;21.90;99.90;;;;;;5056810;28;20044;-82
2023/07/15 09:52:01;;;;;;;7.80;1.58;;;22.00;99.90;;;;;;5073192;28;20044;-81
2023/07/15 09:54:28;;;;;;;6.97;1.70;;;22.00;99.90;;;;;;5056730;28;20105;-82
2023/07/15 09:56:56;;;;;;;9.25;1.92;;;21.80;99.90;;;;;;5057094;28;20420;-80
2023/07/15 09:59:22;;;;;;;13.07;2.22;;;21.50;99.90;;;;;;5055421;28;20051;-83
2023/07/15 10:01:49;;;;;;;12.85;2.33;;;20.70;99.90;;;;;;5073907;28;20455;-84
2023/07/15 10:04:16;;;;;;;14.43;2.20;;;20.10;99.90;;;;;;5058622;28;20063;-81
2023/07/15 10:06:43;;;;;;;7.85;1.88;;;19.60;99.90;;;;;;5076961;28;20041;-84
2023/07/15 10:09:10;;;;;;;7.93;1.98;;;19.40;99.90;;;;;;5077779;28;20117;-84
2023/07/15 10:11:37;;;;;;;14.93;2.30;;;19.70;99.90;;;;;;5059316;28;20048;-80
2023/07/15 10:14:04;;;;;;;13.20;2.17;;;19.90;99.90;;;;;;5059862;28;20064;-82
2023/07/15 10:16:34;;;;;;;14.32;2.20;;;20.00;99.90;;;;;;5077565;28;20102;-82
2023/07/15 10:19:01;;;;;;;15.23;3.13;;;20.20;99.90;;;;;;5076734;28;20532;-82
2023/07/15 10:21:28;;;;;;;14.38;1.83;;;20.10;99.90;;;;;;5073475;28;20055;-81
2023/07/15 10:23:55;;;;;;;13.98;2.28;;;19.70;99.90;;;;;;5060495;28;20099;-81
2023/07/15 10:26:22;;;;;;;10.20;1.80;;;19.50;99.90;;;;;;5073803;28;20351;-84
2023/07/15 10:28:49;;;;;;;7.20;1.63;;;19.40;99.90;;;;;;5076950;28;20078;-82
2023/07/15 10:31:16;;;;;;;11.60;1.80;;;19.20;99.90;;;;;;5059201;28;20040;-83
2023/07/15 10:33:43;;;;;;;7.75;2.25;;;19.10;99.90;;;;;;5059837;28;20383;-84
2023/07/15 10:36:09;;;;;;;12.95;2.45;;;19.10;99.90;;;;;;5059084;28;20131;-83
2023/07/15 10:38:36;;;;;;;11.05;2.13;;;19.30;99.90;;;;;;5058201;28;20056;-81
2023/07/15 10:41:04;;;;;;;14.57;2.08;;;19.60;99.90;;;;;;5077217;28;20060;-81
2023/07/15 10:43:31;;;;;;;9.27;1.92;;;19.50;99.90;;;;;;5059545;28;20037;-83
2023/07/15 10:45:58;;;;;;;18.10;2.25;;;19.30;99.90;;;;;;5076438;28;20041;-82
2023/07/15 10:48:24;;;;;;;15.05;2.58;;;18.50;99.90;;;;;;5076897;28;20424;-84
2023/07/15 10:50:51;;;;;;;11.43;2.28;;;18.00;99.90;;;;;;5076885;28;20070;-84
2023/07/15 10:53:18;;;;;;;16.65;2.42;;;17.80;99.90;;;;;;5058256;28;20044;-84
2023/07/15 10:55:45;;;;;;;12.00;2.08;;;18.00;99.90;;;;;;5059577;28;20060;-85
2023/07/15 10:58:12;;;;;;;15.35;2.58;;;18.10;99.90;;;;;;5075920;28;20429;-84
2023/07/15 11:00:38;;;;;;;11.05;2.50;;;18.10;99.90;;;;;;5077079;28;20101;-83
2023/07/15 11:03:05;;;;;;;13.82;2.20;;;18.50;99.90;;;;;;5042614;28;20136;-82
2023/07/15 11:05:35;;;;;;;17.05;2.30;;;19.00;99.90;;;;;;5075986;28;20033;-81
2023/07/15 11:08:01;;;;;;;11.25;1.95;;;19.30;99.90;;;;;;5057502;28;20044;-84
2023/07/15 11:10:29;;;;;;;15.90;2.92;;;20.00;99.90;;;;;;5070135;28;20115;-86
2023/07/15 11:12:55;;;;;;;14.23;2.60;;;20.50;99.90;;;;;;5075512;28;20513;-84
2023/07/15 11:15:23;;;;;;;8.48;2.05;;;21.20;99.90;;;;;;5057670;28;20041;-83
2023/07/15 11:17:50;;;;;;;9.63;2.50;;;21.80;99.90;;;;;;5076072;28;20375;-84
2023/07/15 11:20:17;;;;;;;11.10;2.17;;;22.00;99.90;;;;;;5057958;28;20463;-85
2023/07/15 11:22:43;;;;;;;13.98;2.25;;;21.80;99.90;;;;;;5058767;28;20040;-81
2023/07/15 11:25:13;;;;;;;10.98;1.75;;;21.60;99.90;;;;;;5054173;28;20041;-84
2023/07/15 11:27:40;;;;;;;10.57;2.85;;;21.10;99.90;;;;;;5076378;28;20505;-88
2023/07/15 11:30:07;;;;;;;16.30;2.10;;;20.80;99.90;;;;;;5075333;28;20098;-87
2023/07/15 11:32:33;;;;;;;9.75;2.85;;;20.50;99.90;;;;;;5074772;28;20479;-87
2023/07/15 11:35:00;;;;;;;8.85;2.15;;;21.10;99.90;;;;;;5075150;28;20068;-86
2023/07/15 11:37:30;;;;;;;7.88;1.92;;;21.20;99.90;;;;;;5074316;28;20059;-84
2023/07/15 11:39:57;;;;;;;13.30;2.40;;;21.10;99.90;;;;;;5057776;28;20062;-86
2023/07/15 11:42:24;;;;;;;10.15;2.05;;;21.40;99.90;;;;;;5076259;28;20410;-84
2023/07/15 11:44:50;;;;;;;12.02;2.33;;;21.20;99.90;;;;;;5057481;28;20419;-85
2023/07/15 11:47:18;;;;;;;15.45;2.33;;;21.60;99.90;;;;;;5041915;28;20044;-84
2023/07/15 11:49:45;;;;;;;12.18;2.35;;;21.70;99.90;;;;;;5041662;28;20068;-83
2023/07/15 11:52:12;;;;;;;9.48;1.55;;;21.50;99.90;;;;;;5075767;28;20046;-83
2023/07/15 11:54:41;;;;;;;12.10;2.50;;;21.70;99.90;;;;;;5053996;28;20040;-85
2023/07/15 11:57:09;;;;;;;12.88;2.08;;;21.90;99.90;;;;;;5075265;28;20050;-88
2023/07/15 11:59:36;;;;;;;8.57;2.25;;;22.30;99.90;;;;;;5057195;28;20045;-85
2023/07/15 12:02:02;;;;;;;13.50;2.60;;;21.90;99.90;;;;;;5075648;28;20047;-85
2023/07/15 12:04:29;;;;;;;9.63;2.67;;;22.60;99.90;;;;;;5041503;28;20044;-84
2023/07/15 12:09:44;;;;;;;10.30;2.00;;;22.80;99.90;;;;;;5075257;28;20078;-85
2023/07/15 12:12:11;;;;;;;10.20;2.38;;;22.80;99.90;;;;;;5074504;28;20127;-82
2023/07/15 12:14:38;;;;;;;10.75;1.92;;;22.30;99.90;;;;;;5075267;28;20102;-85
2023/07/15 12:17:05;;;;;;;11.20;2.22;;;22.50;99.90;;;;;;5075114;28;20036;-85
2023/07/15 12:19:32;;;;;;;9.27;2.03;;;22.90;99.90;;;;;;5074176;28;20113;-82
2023/07/15 12:21:59;;;;;;;7.18;1.90;;;23.00;99.90;;;;;;5075323;28;20392;-82
2023/07/15 12:24:26;;;;;;;14.40;2.40;;;22.50;99.90;;;;;;5075093;28;20048;-81
2023/07/15 12:26:55;;;;;;;11.52;1.90;;;22.00;99.90;;;;;;5057091;28;20105;-83
2023/07/15 12:29:21;;;;;;;12.55;1.83;;;22.50;99.90;;;;;;5057213;28;20101;-84
2023/07/15 12:31:48;;;;;;;12.82;2.40;;;23.10;99.90;;;;;;5040378;28;20047;-82
2023/07/15 12:34:15;;;;;;;9.98;2.25;;;23.30;99.90;;;;;;5057477;28;20067;-84
2023/07/15 12:39:29;;;;;;;13.05;2.28;;;22.90;99.90;;;;;;5073772;28;20053;-84
2023/07/15 12:41:56;;;;;;;9.52;2.25;;;23.70;99.90;;;;;;5064471;28;20064;-82
2023/07/15 12:44:23;;;;;;;11.80;2.13;;;23.60;99.90;;;;;;5074435;28;20135;-83
2023/07/15 12:46:51;;;;;;;14.70;2.47;;;23.40;99.90;;;;;;5056526;28;20471;-81
2023/07/15 12:49:17;;;;;;;11.30;2.42;;;23.60;99.90;;;;;;5055311;28;20438;-83
2023/07/15 12:51:44;;;;;;;13.52;2.58;;;23.80;99.90;;;;;;5051753;28;20040;-82
2023/07/15 12:54:11;;;;;;;10.60;2.35;;;23.50;99.90;;;;;;5052620;28;20434;-81
2023/07/15 12:56:40;;;;;;;11.82;2.75;;;23.80;99.90;;;;;;5062985;28;20044;-82
2023/07/15 12:59:07;;;;;;;9.80;2.45;;;23.90;99.90;;;;;;5055630;28;20044;-81
2023/07/15 13:01:34;;;;;;;11.27;2.85;;;23.40;99.90;;;;;;5072475;28;20533;-82
2023/07/15 13:04:00;;;;;;;11.90;2.50;;;23.30;99.90;;;;;;5056797;28;20055;-84
2023/07/15 13:06:28;;;;;;;13.77;2.30;;;23.80;99.90;;;;;;5073302;28;20041;-82